createdAt,value
2019-05-09T00:00:07.644Z,10.47
2019-05-09T00:02:37.564Z,10.51
2019-05-09T00:05:07.826Z,10.48
2019-05-09T00:07:38.044Z,10.41
2019-05-09T00:10:07.983Z,10.35
2019-05-09T00:12:37.906Z,10.36
2019-05-09T00:15:08.200Z,10.32
2019-05-09T00:17:38.169Z,10.25
2019-05-09T00:20:08.047Z,10.14
2019-05-09T00:22:38.000Z,10.11
2019-05-09T00:25:07.949Z,10.14
2019-05-09T00:27:37.862Z,10.15
2019-05-09T00:30:07.797Z,10.21
2019-05-09T00:32:37.725Z,10.34
2019-05-09T00:35:07.670Z,10.22
2019-05-09T00:37:37.600Z,10.09
2019-05-09T00:40:07.556Z,10.13
2019-05-09T00:42:37.531Z,10.14
2019-05-09T00:45:07.471Z,10.13
2019-05-09T00:47:37.675Z,10.05
2019-05-09T00:50:07.926Z,10.04
2019-05-09T00:52:37.843Z,9.93
2019-05-09T00:55:07.841Z,9.94
2019-05-09T00:57:37.753Z,10.01
2019-05-09T01:00:07.688Z,10.01
2019-05-09T01:02:37.608Z,10.00
2019-05-09T01:05:07.545Z,9.86
2019-05-09T01:07:37.487Z,9.90
2019-05-09T01:10:07.416Z,9.80
2019-05-09T01:12:37.332Z,9.83
2019-05-09T01:15:07.551Z,9.74
2019-05-09T01:17:37.463Z,9.74
2019-05-09T01:20:07.404Z,9.90
2019-05-09T01:22:37.583Z,9.81
2019-05-09T01:25:07.526Z,9.71
2019-05-09T01:27:37.441Z,9.60
2019-05-09T01:30:07.747Z,9.52
2019-05-09T01:32:37.961Z,9.52
2019-05-09T01:35:07.926Z,9.51
2019-05-09T01:37:37.935Z,9.59
2019-05-09T01:40:08.447Z,9.53
2019-05-09T01:42:38.383Z,9.60
2019-05-09T01:45:08.305Z,9.62
2019-05-09T01:47:38.236Z,9.75
2019-05-09T01:50:08.477Z,9.97
2019-05-09T01:52:38.393Z,9.93
2019-05-09T01:55:08.338Z,9.83
2019-05-09T01:57:38.275Z,9.68
2019-05-09T02:00:08.535Z,9.68
2019-05-09T02:02:38.774Z,9.68
2019-05-09T02:05:08.701Z,9.88
2019-05-09T02:07:38.616Z,9.68
2019-05-09T02:10:08.561Z,9.58
2019-05-09T02:12:38.487Z,9.63
2019-05-09T02:15:08.415Z,9.49
2019-05-09T02:17:38.647Z,9.56
2019-05-09T02:20:08.605Z,9.38
2019-05-09T02:22:38.524Z,9.31
2019-05-09T02:27:47.521Z,9.23
2019-05-09T02:30:17.474Z,9.14
2019-05-09T02:32:47.658Z,9.07
2019-05-09T02:35:17.587Z,8.96
2019-05-09T02:37:49.847Z,9.02
2019-05-09T02:40:18.806Z,9.09
2019-05-09T02:42:48.981Z,9.00
2019-05-09T02:45:19.155Z,8.96
2019-05-09T02:47:49.048Z,9.07
2019-05-09T02:50:19.574Z,9.01
2019-05-09T02:52:48.649Z,9.00
2019-05-09T02:55:18.382Z,8.90
2019-05-09T02:57:48.917Z,8.91
2019-05-09T03:00:19.969Z,8.94
2019-05-09T03:02:48.726Z,8.88
2019-05-09T03:05:19.624Z,8.84
2019-05-09T03:07:48.656Z,8.87
2019-05-09T03:10:19.251Z,8.85
2019-05-09T03:12:50.069Z,8.80
2019-05-09T03:15:18.569Z,8.82
2019-05-09T03:17:49.482Z,8.83
2019-05-09T03:20:18.188Z,8.78
2019-05-09T03:22:48.651Z,8.80
2019-05-09T03:25:19.168Z,8.80
2019-05-09T03:27:48.408Z,8.70
2019-05-09T03:30:20.728Z,8.61
2019-05-09T03:32:49.007Z,8.67
2019-05-09T03:35:17.440Z,8.72
2019-05-09T03:37:48.101Z,8.74
2019-05-09T03:40:18.042Z,8.62
2019-05-09T03:42:48.660Z,8.55
2019-05-09T03:47:58.288Z,8.51
2019-05-09T03:50:27.946Z,8.56
2019-05-09T03:52:57.996Z,8.43
2019-05-09T03:55:28.191Z,8.41
2019-05-09T03:57:58.045Z,8.42
2019-05-09T04:00:28.349Z,8.47
2019-05-09T04:02:58.081Z,8.43
2019-05-09T04:05:27.398Z,8.47
2019-05-09T04:07:58.247Z,8.61
2019-05-09T04:10:28.187Z,8.50
2019-05-09T04:12:59.507Z,8.54
2019-05-09T04:18:08.254Z,8.53
2019-05-09T04:20:37.731Z,8.44
2019-05-09T04:23:07.960Z,8.44
2019-05-09T04:25:37.660Z,8.42
2019-05-09T04:28:07.528Z,8.50
2019-05-09T04:30:37.621Z,8.35
2019-05-09T04:33:07.841Z,8.34
2019-05-09T04:35:38.293Z,8.41
2019-05-09T04:38:07.989Z,8.40
2019-05-09T04:40:45.053Z,8.38
2019-05-09T04:43:14.250Z,8.60
2019-05-09T04:48:20.253Z,8.62
2019-05-09T04:50:47.865Z,8.56
2019-05-09T04:53:18.309Z,8.64
2019-05-09T04:55:47.941Z,8.65
2019-05-09T04:58:19.173Z,8.75
2019-05-09T05:00:48.001Z,9.00
2019-05-09T05:03:18.328Z,9.07
2019-05-09T05:05:48.167Z,9.25
2019-05-09T05:08:18.156Z,9.31
2019-05-09T05:10:47.767Z,9.44
2019-05-09T05:13:26.463Z,9.74
2019-05-09T05:15:47.516Z,9.85
2019-05-09T05:18:17.399Z,9.99
2019-05-09T05:20:48.159Z,10.23
2019-05-09T05:23:18.270Z,10.41
2019-05-09T05:25:47.660Z,10.64
2019-05-09T05:28:17.714Z,10.73
2019-05-09T05:30:47.752Z,10.76
2019-05-09T05:33:18.462Z,10.78
2019-05-09T05:35:48.062Z,10.67
2019-05-09T05:38:17.737Z,10.85
2019-05-09T05:40:49.735Z,10.93
2019-05-09T05:43:17.521Z,11.03
2019-05-09T05:45:47.985Z,11.10
2019-05-09T05:48:17.570Z,11.07
2019-05-09T05:53:27.775Z,11.07
2019-05-09T05:55:58.068Z,11.24
2019-05-09T05:58:28.168Z,11.42
2019-05-09T06:00:58.910Z,11.52
2019-05-09T06:06:08.857Z,11.94
2019-05-09T06:08:38.024Z,11.92
2019-05-09T06:11:11.891Z,12.09
2019-05-09T06:13:37.999Z,12.26
2019-05-09T06:16:08.556Z,12.41
2019-05-09T06:21:17.764Z,12.49
2019-05-09T06:23:48.105Z,12.46
2019-05-09T06:26:18.583Z,12.54
2019-05-09T06:31:28.292Z,12.52
2019-05-09T06:33:57.789Z,12.78
2019-05-09T06:36:28.232Z,12.91
2019-05-09T06:38:55.594Z,12.92
2019-05-09T06:44:14.329Z,13.37
2019-05-09T06:46:34.787Z,13.60
2019-05-09T06:49:23.316Z,13.66
2019-05-09T06:54:14.086Z,13.78
2019-05-09T06:56:44.266Z,14.05
2019-05-09T06:59:14.223Z,14.18
2019-05-09T07:01:44.521Z,14.23
2019-05-09T07:06:54.053Z,14.12
2019-05-09T07:09:23.977Z,14.46
2019-05-09T07:11:53.988Z,14.50
2019-05-09T07:14:28.965Z,13.61
2019-05-09T07:16:53.844Z,13.10
2019-05-09T07:19:24.127Z,12.91
2019-05-09T07:21:54.130Z,12.98
2019-05-09T07:24:23.965Z,12.91
2019-05-09T07:26:53.900Z,12.93
2019-05-09T07:29:23.825Z,13.61
2019-05-09T07:31:54.099Z,14.27
2019-05-09T07:34:24.035Z,14.23
2019-05-09T07:36:53.946Z,14.43
2019-05-09T07:39:23.872Z,13.92
2019-05-09T07:41:53.805Z,14.29
2019-05-09T07:44:23.735Z,14.70
2019-05-09T07:46:53.671Z,14.76
2019-05-09T07:49:23.614Z,14.61
2019-05-09T07:51:53.546Z,14.65
2019-05-09T07:54:25.721Z,14.89
2019-05-09T07:56:53.399Z,15.18
2019-05-09T07:59:23.655Z,15.34
2019-05-09T08:01:53.625Z,15.03
2019-05-09T08:07:02.883Z,15.27
2019-05-09T08:09:32.800Z,14.86
2019-05-09T08:12:02.727Z,14.50
2019-05-09T08:14:32.675Z,14.37
2019-05-09T08:17:02.890Z,15.14
2019-05-09T08:19:32.806Z,15.58
2019-05-09T08:22:02.762Z,15.63
2019-05-09T08:24:32.679Z,15.72
2019-05-09T08:27:02.648Z,15.89
2019-05-09T08:29:32.567Z,16.00
2019-05-09T08:32:02.501Z,15.94
2019-05-09T08:37:12.684Z,15.97
2019-05-09T08:39:42.342Z,16.25
2019-05-09T08:42:12.277Z,16.43
2019-05-09T08:44:42.260Z,16.25
2019-05-09T08:47:12.392Z,16.43
2019-05-09T08:49:42.326Z,16.43
2019-05-09T08:52:16.210Z,16.52
2019-05-09T08:54:42.537Z,16.54
2019-05-09T08:57:12.476Z,16.73
2019-05-09T08:59:42.408Z,16.48
2019-05-09T09:02:16.528Z,16.55
2019-05-09T09:07:21.618Z,16.82
2019-05-09T09:09:51.547Z,16.91
2019-05-09T09:12:30.462Z,16.76
2019-05-09T09:14:51.410Z,16.58
2019-05-09T09:17:21.349Z,16.63
2019-05-09T09:19:51.271Z,16.85
2019-05-09T09:22:21.215Z,16.93
2019-05-09T09:24:51.427Z,16.40
2019-05-09T09:27:21.370Z,15.96
2019-05-09T09:29:51.313Z,16.67
2019-05-09T09:32:21.248Z,16.83
2019-05-09T09:37:44.956Z,16.44
2019-05-09T09:40:00.459Z,16.07
2019-05-09T09:42:30.407Z,15.88
2019-05-09T09:45:00.665Z,15.69
2019-05-09T09:47:30.880Z,15.80
2019-05-09T09:50:00.807Z,16.18
2019-05-09T09:52:34.277Z,16.75
2019-05-09T09:55:00.943Z,17.25
2019-05-09T09:57:30.878Z,17.33
2019-05-09T10:00:00.800Z,16.65
2019-05-09T10:02:30.735Z,16.32
2019-05-09T10:07:40.340Z,15.88
2019-05-09T10:10:10.268Z,16.68
2019-05-09T10:12:44.473Z,16.46
2019-05-09T10:15:10.290Z,15.92
2019-05-09T10:17:40.241Z,16.08
2019-05-09T10:20:10.157Z,16.75
2019-05-09T10:22:46.461Z,16.28
2019-05-09T10:25:10.752Z,15.84
2019-05-09T10:27:40.694Z,16.30
2019-05-09T10:30:10.614Z,16.08
2019-05-09T10:32:40.528Z,16.14
2019-05-09T10:35:10.458Z,16.70
2019-05-09T10:37:40.734Z,16.46
2019-05-09T10:40:10.673Z,16.07
2019-05-09T10:42:40.613Z,15.91
2019-05-09T10:45:10.545Z,15.80
2019-05-09T10:47:40.789Z,15.85
2019-05-09T10:50:10.736Z,16.07
2019-05-09T10:52:40.671Z,16.62
2019-05-09T10:55:10.620Z,16.71
2019-05-09T10:57:42.512Z,17.02
2019-05-09T11:00:10.496Z,17.09
2019-05-09T11:02:40.407Z,17.02
2019-05-09T11:05:10.352Z,17.09
2019-05-09T11:07:40.275Z,17.15
2019-05-09T11:10:24.577Z,17.17
2019-05-09T11:12:40.426Z,16.74
2019-05-09T11:15:10.371Z,16.30
2019-05-09T11:17:40.560Z,16.84
2019-05-09T11:20:10.803Z,16.84
2019-05-09T11:22:41.049Z,16.57
2019-05-09T11:25:10.937Z,17.10
2019-05-09T11:27:41.133Z,17.29
2019-05-09T11:30:11.067Z,17.61
2019-05-09T11:32:40.996Z,17.43
2019-05-09T11:37:50.258Z,17.74
2019-05-09T11:40:20.530Z,17.73
2019-05-09T11:42:50.450Z,17.89
2019-05-09T11:45:20.386Z,18.17
2019-05-09T11:47:50.316Z,18.30
2019-05-09T11:50:23.247Z,18.35
2019-05-09T11:52:50.504Z,18.35
2019-05-09T11:55:29.855Z,18.34
2019-05-09T11:57:50.467Z,18.33
2019-05-09T12:00:20.422Z,18.07
2019-05-09T12:02:50.355Z,18.15
2019-05-09T12:05:20.283Z,17.89
2019-05-09T12:07:50.220Z,17.49
2019-05-09T12:10:20.513Z,17.50
2019-05-09T12:12:50.434Z,17.32
2019-05-09T12:15:20.379Z,17.25
2019-05-09T12:17:57.920Z,17.15
2019-05-09T12:20:20.232Z,17.03
2019-05-09T12:22:50.484Z,17.07
2019-05-09T12:25:20.738Z,17.01
2019-05-09T12:27:50.686Z,16.99
2019-05-09T12:30:20.602Z,17.04
2019-05-09T12:32:50.525Z,16.85
2019-05-09T12:35:20.778Z,16.46
2019-05-09T12:37:50.710Z,17.11
2019-05-09T12:40:20.664Z,17.51
2019-05-09T12:42:50.621Z,17.50
2019-05-09T12:45:20.519Z,17.62
2019-05-09T12:48:05.823Z,17.55
2019-05-09T12:50:20.389Z,17.69
2019-05-09T12:52:50.317Z,17.67
2019-05-09T12:55:20.288Z,17.66
2019-05-09T12:57:50.503Z,17.88
2019-05-09T13:00:20.467Z,17.76
2019-05-09T13:02:50.924Z,17.77
2019-05-09T13:05:20.965Z,17.79
2019-05-09T13:07:50.880Z,17.27
2019-05-09T13:10:21.100Z,17.29
2019-05-09T13:12:51.065Z,17.15
2019-05-09T13:15:21.350Z,17.15
2019-05-09T13:17:50.938Z,17.25
2019-05-09T13:20:20.886Z,17.33
2019-05-09T13:22:50.818Z,17.23
2019-05-09T13:25:20.756Z,17.56
2019-05-09T13:27:52.927Z,17.69
2019-05-09T13:30:20.940Z,17.65
2019-05-09T13:32:50.851Z,18.00
2019-05-09T13:35:20.817Z,17.76
2019-05-09T13:37:50.739Z,17.57
2019-05-09T13:40:20.675Z,17.32
2019-05-09T13:42:50.596Z,17.65
2019-05-09T13:45:20.800Z,16.89
2019-05-09T13:47:50.711Z,17.01
2019-05-09T13:50:20.652Z,16.96
2019-05-09T13:52:50.612Z,16.80
2019-05-09T13:55:20.541Z,16.84
2019-05-09T13:57:50.781Z,16.72
2019-05-09T14:00:20.728Z,16.69
2019-05-09T14:02:51.021Z,16.81
2019-05-09T14:05:20.949Z,16.44
2019-05-09T14:07:54.794Z,16.38
2019-05-09T14:10:20.851Z,16.46
2019-05-09T14:13:05.801Z,16.05
2019-05-09T14:15:20.692Z,15.77
2019-05-09T14:17:53.763Z,15.50
2019-05-09T14:20:20.915Z,15.05
2019-05-09T14:22:50.828Z,14.81
2019-05-09T14:25:20.792Z,14.53
2019-05-09T14:27:52.413Z,14.32
2019-05-09T14:30:21.001Z,13.95
2019-05-09T14:32:50.965Z,13.80
2019-05-09T14:35:21.216Z,13.82
2019-05-09T14:37:51.163Z,13.64
2019-05-09T14:40:21.101Z,13.72
2019-05-09T14:42:51.062Z,13.73
2019-05-09T14:45:20.966Z,13.79
2019-05-09T14:47:50.901Z,14.21
2019-05-09T14:50:20.850Z,14.04
2019-05-09T14:52:51.049Z,14.39
2019-05-09T14:55:20.973Z,14.28
2019-05-09T14:57:50.902Z,14.27
2019-05-09T15:00:20.830Z,14.84
2019-05-09T15:02:51.036Z,14.74
2019-05-09T15:05:20.970Z,14.81
2019-05-09T15:07:53.718Z,14.79
2019-05-09T15:10:20.868Z,14.57
2019-05-09T15:12:50.829Z,14.62
2019-05-09T15:15:20.736Z,14.70
2019-05-09T15:17:50.683Z,14.89
2019-05-09T15:20:20.681Z,15.00
2019-05-09T15:22:50.620Z,14.89
2019-05-09T15:25:21.032Z,14.87
2019-05-09T15:27:50.476Z,15.02
2019-05-09T15:32:59.768Z,14.89
2019-05-09T15:35:29.987Z,14.51
2019-05-09T15:37:59.938Z,14.49
2019-05-09T15:40:29.852Z,14.67
2019-05-09T15:42:59.788Z,14.63
2019-05-09T15:45:29.715Z,14.61
2019-05-09T15:47:59.751Z,14.74
2019-05-09T15:50:29.989Z,14.85
2019-05-09T15:53:00.196Z,14.80
2019-05-09T15:55:30.144Z,14.75
2019-05-09T15:58:00.089Z,14.61
2019-05-09T16:00:30.034Z,14.93
2019-05-09T16:02:59.960Z,15.06
2019-05-09T16:05:31.892Z,14.62
2019-05-09T16:07:59.918Z,14.86
2019-05-09T16:10:30.101Z,14.61
2019-05-09T16:13:00.273Z,14.87
2019-05-09T16:15:30.650Z,14.55
2019-05-09T16:18:00.584Z,14.74
2019-05-09T16:20:37.746Z,14.55
2019-05-09T16:23:00.443Z,14.54
2019-05-09T16:25:30.371Z,14.53
2019-05-09T16:28:00.296Z,14.40
2019-05-09T16:30:30.530Z,14.38
2019-05-09T16:33:00.473Z,14.30
2019-05-09T16:35:30.794Z,14.63
2019-05-09T16:38:06.433Z,14.44
2019-05-09T16:40:30.934Z,14.43
2019-05-09T16:43:00.890Z,14.31
2019-05-09T16:45:31.157Z,14.28
2019-05-09T16:48:01.116Z,14.27
2019-05-09T16:50:31.382Z,14.20
2019-05-09T16:53:01.587Z,14.20
2019-05-09T16:55:31.515Z,14.16
2019-05-09T16:58:01.447Z,13.88
2019-05-09T17:00:34.300Z,13.83
2019-05-09T17:03:04.230Z,13.82
2019-05-09T17:05:34.159Z,13.80
2019-05-09T17:08:04.104Z,13.80
2019-05-09T17:10:34.369Z,13.61
2019-05-09T17:13:04.590Z,13.80
2019-05-09T17:15:34.522Z,13.51
2019-05-09T17:18:04.824Z,13.50
2019-05-09T17:20:34.763Z,13.48
2019-05-09T17:23:11.474Z,13.43
2019-05-09T17:25:34.637Z,13.26
2019-05-09T17:30:44.230Z,13.17
2019-05-09T17:33:14.164Z,13.17
2019-05-09T17:35:44.349Z,12.93
2019-05-09T17:38:14.570Z,12.92
2019-05-09T17:40:44.501Z,12.95
2019-05-09T17:43:14.703Z,12.98
2019-05-09T17:45:44.655Z,12.87
2019-05-09T17:48:14.595Z,12.86
2019-05-09T17:50:44.521Z,12.82
2019-05-09T17:53:14.453Z,12.89
2019-05-09T17:55:44.406Z,12.84
2019-05-09T17:58:29.094Z,12.99
2019-05-09T18:00:44.609Z,12.79
2019-05-09T18:03:14.538Z,12.86
2019-05-09T18:05:44.762Z,12.76
2019-05-09T18:08:14.688Z,12.69
2019-05-09T18:10:44.635Z,12.70
2019-05-09T18:13:14.561Z,12.68
2019-05-09T18:15:44.810Z,12.55
2019-05-09T18:18:15.039Z,12.58
2019-05-09T18:20:44.996Z,12.60
2019-05-09T18:25:54.808Z,12.47
2019-05-09T18:28:24.934Z,12.43
2019-05-09T18:30:55.230Z,12.42
2019-05-09T18:33:25.150Z,12.35
2019-05-09T18:35:55.103Z,12.24
2019-05-09T18:41:10.371Z,12.20
2019-05-09T18:43:40.374Z,12.15
2019-05-09T18:46:10.318Z,12.17
2019-05-09T18:48:40.239Z,12.21
2019-05-09T18:53:49.522Z,12.05
2019-05-09T18:56:19.456Z,12.11
2019-05-09T18:58:49.381Z,12.12
2019-05-09T19:01:19.589Z,12.15
2019-05-09T19:03:49.527Z,12.06
2019-05-09T19:06:19.448Z,12.05
2019-05-09T19:08:49.385Z,12.02
2019-05-09T19:11:19.663Z,12.06
2019-05-09T19:13:49.894Z,12.13
2019-05-09T19:16:20.098Z,12.01
2019-05-09T19:18:50.338Z,11.97
2019-05-09T19:21:20.274Z,11.82
2019-05-09T19:23:50.453Z,11.87
2019-05-09T19:26:20.671Z,11.76
2019-05-09T19:28:50.594Z,11.73
2019-05-09T19:31:20.525Z,11.72
2019-05-09T19:33:50.440Z,11.75
2019-05-09T19:36:20.367Z,11.69
2019-05-09T19:41:29.654Z,11.68
2019-05-09T19:43:59.664Z,11.88
2019-05-09T19:46:29.928Z,11.74
2019-05-09T19:49:00.133Z,11.75
2019-05-09T19:51:30.096Z,11.59
2019-05-09T19:54:00.364Z,11.49
2019-05-09T19:56:30.336Z,11.55
2019-05-09T19:59:00.269Z,11.65
2019-05-09T20:01:30.286Z,11.49
2019-05-09T20:04:00.213Z,11.49
2019-05-09T20:06:30.157Z,11.45
2019-05-09T20:09:00.099Z,11.46
2019-05-09T20:11:33.124Z,11.50
2019-05-09T20:13:59.938Z,11.67
2019-05-09T20:16:29.871Z,11.56
2019-05-09T20:18:59.783Z,11.49
2019-05-09T20:21:29.720Z,11.59
2019-05-09T20:23:59.670Z,11.31
2019-05-09T20:26:29.870Z,11.25
2019-05-09T20:28:59.790Z,11.43
2019-05-09T20:31:29.748Z,11.44
2019-05-09T20:34:00.000Z,11.29
2019-05-09T20:36:29.940Z,11.38
2019-05-09T20:38:59.911Z,11.40
2019-05-09T20:41:29.838Z,11.41
2019-05-09T20:43:59.775Z,11.52
2019-05-09T20:46:29.977Z,11.40
2019-05-09T20:48:59.910Z,11.41
2019-05-09T20:51:29.848Z,11.47
2019-05-09T20:54:00.017Z,11.40
2019-05-09T20:56:30.245Z,11.46
2019-05-09T20:59:00.183Z,11.47
2019-05-09T21:01:30.139Z,11.40
2019-05-09T21:04:00.919Z,11.27
2019-05-09T21:06:30.002Z,11.37
2019-05-09T21:08:59.939Z,11.50
2019-05-09T21:11:29.871Z,11.29
2019-05-09T21:13:59.802Z,11.29
2019-05-09T21:16:29.735Z,11.39
2019-05-09T21:18:59.975Z,11.43
2019-05-09T21:21:29.919Z,11.59
2019-05-09T21:24:00.110Z,11.31
2019-05-09T21:26:30.041Z,11.21
2019-05-09T21:31:39.281Z,11.17
2019-05-09T21:34:09.205Z,11.15
2019-05-09T21:36:39.527Z,11.29
2019-05-09T21:39:09.446Z,11.21
2019-05-09T21:41:39.733Z,11.15
2019-05-09T21:44:09.653Z,11.19
2019-05-09T21:46:39.870Z,11.05
2019-05-09T21:49:09.791Z,11.02
2019-05-09T21:51:39.740Z,11.14
2019-05-09T21:54:09.640Z,11.11
2019-05-09T21:56:39.848Z,10.92
2019-05-09T21:59:09.774Z,10.95
2019-05-09T22:01:40.078Z,11.07
2019-05-09T22:04:10.014Z,10.95
2019-05-09T22:06:39.947Z,10.92
2019-05-09T22:11:49.863Z,10.91
2019-05-09T22:14:19.817Z,10.91
2019-05-09T22:16:49.733Z,10.94
2019-05-09T22:19:19.650Z,10.97
2019-05-09T22:21:49.938Z,10.90
2019-05-09T22:24:20.134Z,10.94
2019-05-09T22:26:50.070Z,10.85
2019-05-09T22:29:20.270Z,10.88
2019-05-09T22:31:50.194Z,10.77
2019-05-09T22:34:20.114Z,10.82
2019-05-09T22:36:50.076Z,10.79
2019-05-09T22:39:19.990Z,10.85
2019-05-09T22:41:49.933Z,10.81
2019-05-09T22:44:19.868Z,10.82
2019-05-09T22:46:49.799Z,10.88
2019-05-09T22:49:19.726Z,10.86
2019-05-09T22:51:50.014Z,10.93
2019-05-09T22:54:19.933Z,10.88
2019-05-09T22:56:49.882Z,10.90
2019-05-09T22:59:20.149Z,10.87
2019-05-09T23:01:50.392Z,10.88
2019-05-09T23:04:20.321Z,10.81
2019-05-09T23:06:50.246Z,10.84
2019-05-09T23:09:20.172Z,10.84
2019-05-09T23:11:50.442Z,10.88
2019-05-09T23:14:20.659Z,10.86
2019-05-09T23:16:51.015Z,10.85
2019-05-09T23:21:59.854Z,10.88
2019-05-09T23:27:09.471Z,10.78
2019-05-09T23:29:39.699Z,10.60
2019-05-09T23:32:09.640Z,10.61
2019-05-09T23:34:39.560Z,10.58
2019-05-09T23:37:09.489Z,10.46
2019-05-09T23:39:39.701Z,10.49
2019-05-09T23:44:49.323Z,10.40
2019-05-09T23:47:19.532Z,10.36
2019-05-09T23:49:49.449Z,10.27
2019-05-09T23:52:19.393Z,10.27
2019-05-09T23:54:49.338Z,10.34
2019-05-09T23:57:19.259Z,10.23
2019-05-09T23:59:49.180Z,10.34
